createdAt,value
2022-08-22T00:00:19.009Z,101275.63
2022-08-22T00:02:45.054Z,101212.88
2022-08-22T00:05:32.319Z,101271.03
2022-08-22T00:11:07.957Z,101277.00
2022-08-22T00:16:28.962Z,101277.88
2022-08-22T00:21:35.540Z,101277.66
2022-08-22T00:26:53.966Z,101278.31
2022-08-22T00:32:10.543Z,101282.03
2022-08-22T00:37:17.169Z,101287.44
2022-08-22T00:42:29.111Z,101279.06
2022-08-22T00:47:55.531Z,101274.38
2022-08-22T00:53:00.059Z,101273.91
2022-08-22T00:58:35.347Z,101276.59
2022-08-22T01:03:48.595Z,101280.59
2022-08-22T01:08:59.015Z,101278.63
2022-08-22T01:14:37.995Z,101279.19
2022-08-22T01:19:53.007Z,101277.06
2022-08-22T01:25:15.899Z,101292.66
2022-08-22T01:30:38.942Z,101297.31
2022-08-22T01:35:49.402Z,101286.31
2022-08-22T01:41:12.186Z,101283.56
2022-08-22T01:46:20.692Z,101292.34
2022-08-22T01:52:00.641Z,101300.00
2022-08-22T01:57:05.271Z,101295.16
2022-08-22T02:02:32.057Z,101292.38
2022-08-22T02:07:48.771Z,101297.09
2022-08-22T02:13:17.841Z,101306.44
2022-08-22T02:18:33.200Z,101301.81
2022-08-22T02:23:57.260Z,101304.78
2022-08-22T02:29:22.506Z,101295.31
2022-08-22T02:34:26.798Z,101298.91
2022-08-22T02:40:02.129Z,101298.44
2022-08-22T02:45:07.039Z,101295.94
2022-08-22T02:50:18.485Z,101294.13
2022-08-22T02:55:41.105Z,101299.72
2022-08-22T03:00:52.298Z,101297.88
2022-08-22T03:06:19.670Z,101300.47
2022-08-22T03:11:26.557Z,101295.22
2022-08-22T03:17:26.272Z,101297.88
2022-08-22T03:22:43.625Z,101292.16
2022-08-22T03:27:51.947Z,101296.91
2022-08-22T03:33:17.011Z,101293.13
2022-08-22T03:38:33.496Z,101305.16
2022-08-22T03:44:05.702Z,101301.63
2022-08-22T03:49:12.930Z,101293.88
2022-08-22T03:54:35.844Z,101291.75
2022-08-22T03:59:58.885Z,101292.16
2022-08-22T04:05:05.046Z,101302.28
2022-08-22T04:10:31.119Z,101307.56
2022-08-22T04:16:00.884Z,101310.28
2022-08-22T04:21:16.290Z,101310.72
2022-08-22T04:26:33.502Z,101324.09
2022-08-22T04:31:44.392Z,101318.31
2022-08-22T04:36:50.477Z,101323.69
2022-08-22T04:42:00.695Z,101323.69
2022-08-22T04:47:35.174Z,101329.28
2022-08-22T04:52:59.601Z,101325.38
2022-08-22T04:58:26.627Z,101334.00
2022-08-22T05:03:28.849Z,101326.72
2022-08-22T05:08:31.895Z,101328.50
2022-08-22T05:13:44.549Z,101324.34
2022-08-22T05:18:48.860Z,101331.19
2022-08-22T05:23:55.834Z,101328.59
2022-08-22T05:29:00.330Z,101338.63
2022-08-22T05:34:06.174Z,101349.00
2022-08-22T05:39:17.593Z,101355.09
2022-08-22T05:44:20.865Z,101348.16
2022-08-22T05:49:23.511Z,101357.44
2022-08-22T05:54:33.522Z,101367.00
2022-08-22T05:59:38.438Z,101363.63
2022-08-22T06:04:51.895Z,101363.22
2022-08-22T06:10:13.798Z,101371.31
2022-08-22T06:15:36.767Z,101368.00
2022-08-22T06:20:56.336Z,101364.78
2022-08-22T06:25:59.394Z,101374.00
2022-08-22T06:31:00.942Z,101371.44
2022-08-22T06:36:24.637Z,101375.38
2022-08-22T06:41:28.298Z,101390.53
2022-08-22T06:46:29.855Z,101383.09
2022-08-22T06:51:32.474Z,101386.69
2022-08-22T06:56:44.380Z,101397.75
2022-08-22T07:01:52.905Z,101398.06
2022-08-22T07:06:56.055Z,101395.28
2022-08-22T07:11:59.398Z,101391.94
2022-08-22T07:17:04.799Z,101388.09
2022-08-22T07:22:17.444Z,101400.47
2022-08-22T07:27:41.062Z,101400.94
2022-08-22T07:33:18.977Z,101409.00
2022-08-22T07:38:42.755Z,101408.78
2022-08-22T07:43:57.603Z,101408.69
2022-08-22T07:49:14.335Z,101417.63
2022-08-22T07:54:22.737Z,101407.19
2022-08-22T07:59:28.918Z,101400.03
2022-08-22T08:04:33.476Z,101403.78
2022-08-22T08:09:40.631Z,101405.16
2022-08-22T08:14:44.160Z,101399.72
2022-08-22T08:19:45.832Z,101400.56
2022-08-22T08:24:47.408Z,101386.28
2022-08-22T08:29:54.578Z,101376.03
2022-08-22T08:34:56.256Z,101374.91
2022-08-22T08:39:58.408Z,101375.06
2022-08-22T08:45:23.683Z,101375.88
2022-08-22T08:50:56.510Z,101378.91
2022-08-22T08:56:10.922Z,101380.34
2022-08-22T09:01:31.041Z,101392.25
2022-08-22T09:06:56.745Z,101381.16
2022-08-22T09:12:08.535Z,101394.56
2022-08-22T09:17:29.161Z,101400.97
2022-08-22T09:23:10.186Z,101402.16
2022-08-22T09:28:14.571Z,101398.16
2022-08-22T09:33:18.332Z,101399.47
2022-08-22T09:38:47.814Z,101388.38
2022-08-22T09:43:52.668Z,101394.66
2022-08-22T09:49:25.804Z,101389.47
2022-08-22T09:55:07.922Z,101402.41
2022-08-22T10:00:22.407Z,101392.00
2022-08-22T10:05:40.636Z,101393.88
2022-08-22T10:11:06.617Z,101396.25
2022-08-22T10:16:27.209Z,101394.50
2022-08-22T10:21:37.950Z,101393.53
2022-08-22T10:26:44.869Z,101398.50
2022-08-22T10:32:21.117Z,101403.63
2022-08-22T10:37:46.126Z,101403.56
2022-08-22T10:43:10.849Z,101400.94
2022-08-22T10:48:44.577Z,101402.47
2022-08-22T10:53:53.490Z,101387.97
2022-08-22T10:59:23.500Z,101398.84
2022-08-22T11:04:40.119Z,101402.66
2022-08-22T11:09:44.963Z,101391.00
2022-08-22T11:14:57.090Z,101389.59
2022-08-22T11:20:01.512Z,101389.13
2022-08-22T11:25:35.663Z,101377.34
2022-08-22T11:30:44.176Z,101373.47
2022-08-22T11:36:11.708Z,101363.78
2022-08-22T11:41:24.012Z,101369.38
2022-08-22T11:46:49.096Z,101370.66
2022-08-22T11:52:13.348Z,101363.78
2022-08-22T11:57:17.744Z,101366.25
2022-08-22T12:02:25.303Z,101361.81
2022-08-22T12:07:31.566Z,101365.63
2022-08-22T12:12:53.430Z,101364.38
2022-08-22T12:18:21.147Z,101355.13
2022-08-22T12:23:40.754Z,101360.56
2022-08-22T12:28:59.137Z,101354.31
2022-08-22T12:34:08.278Z,101349.94
2022-08-22T12:39:17.019Z,101350.56
2022-08-22T12:44:42.881Z,101344.75
2022-08-22T12:50:09.147Z,101340.66
2022-08-22T12:55:37.660Z,101333.56
2022-08-22T13:00:43.863Z,101343.38
2022-08-22T13:05:56.746Z,101337.22
2022-08-22T13:11:10.033Z,101332.16
2022-08-22T13:16:24.591Z,101336.66
2022-08-22T13:21:31.477Z,101339.75
2022-08-22T13:26:40.796Z,101330.97
2022-08-22T13:31:45.563Z,101334.28
2022-08-22T13:36:51.946Z,101328.91
2022-08-22T13:42:00.187Z,101318.41
2022-08-22T13:47:14.409Z,101319.03
2022-08-22T13:52:29.206Z,101323.91
2022-08-22T13:57:38.659Z,101312.44
2022-08-22T14:03:00.375Z,101321.44
2022-08-22T14:08:18.605Z,101314.34
2022-08-22T14:13:45.050Z,101308.97
2022-08-22T14:18:54.060Z,101307.78
2022-08-22T14:24:13.022Z,101306.66
2022-08-22T14:29:16.015Z,101293.34
2022-08-22T14:34:17.543Z,101301.81
2022-08-22T14:39:26.706Z,101294.34
2022-08-22T14:44:29.648Z,101296.97
2022-08-22T14:49:54.378Z,101283.59
2022-08-22T14:55:09.741Z,101277.03
2022-08-22T15:00:12.540Z,101269.84
2022-08-22T15:05:19.563Z,101271.91
2022-08-22T15:10:22.656Z,101269.84
2022-08-22T15:15:32.842Z,101264.84
2022-08-22T15:21:10.293Z,101251.19
2022-08-22T15:26:22.786Z,101244.34
2022-08-22T15:31:24.315Z,101254.28
2022-08-22T15:36:26.050Z,101246.59
2022-08-22T15:41:36.784Z,101246.50
2022-08-22T15:46:41.308Z,101239.31
2022-08-22T15:51:55.371Z,101232.34
2022-08-22T15:57:24.803Z,101221.47
2022-08-22T16:02:35.441Z,101229.22
2022-08-22T16:07:50.986Z,101224.28
2022-08-22T16:13:26.560Z,101223.25
2022-08-22T16:18:33.823Z,101217.03
2022-08-22T16:23:50.964Z,101217.91
2022-08-22T16:29:37.625Z,101218.94
2022-08-22T16:34:45.530Z,101222.13
2022-08-22T16:40:04.074Z,101214.31
2022-08-22T16:45:08.327Z,101220.44
2022-08-22T16:50:15.624Z,101208.66
2022-08-22T16:55:29.318Z,101216.31
2022-08-22T17:00:30.727Z,101211.06
2022-08-22T17:05:41.374Z,101209.72
2022-08-22T17:10:53.181Z,101215.91
2022-08-22T17:16:04.266Z,101206.13
2022-08-22T17:21:36.341Z,101203.25
2022-08-22T17:26:45.706Z,101207.34
2022-08-22T17:31:59.698Z,101212.41
2022-08-22T17:37:06.712Z,101211.06
2022-08-22T17:42:45.283Z,101216.72
2022-08-22T17:47:52.577Z,101214.56
2022-08-22T17:53:00.890Z,101210.38
2022-08-22T17:58:33.585Z,101213.16
2022-08-22T18:03:38.886Z,101209.28
2022-08-22T18:14:25.728Z,101220.19
2022-08-22T18:19:43.635Z,101216.72
2022-08-22T18:25:08.599Z,101225.00
2022-08-22T18:30:20.559Z,101229.81
2022-08-22T18:36:00.830Z,101231.25
2022-08-22T18:41:06.966Z,101219.72
2022-08-22T18:46:29.732Z,101225.00
2022-08-22T18:51:38.297Z,101232.78
2022-08-22T18:57:01.849Z,101227.06
2022-08-22T19:02:40.094Z,101227.53
2022-08-22T19:07:59.918Z,101249.09
2022-08-22T19:13:07.206Z,101227.84
2022-08-22T19:18:18.107Z,101236.69
2022-08-22T19:23:40.460Z,101239.63
2022-08-22T19:28:41.999Z,101236.84
2022-08-22T19:33:47.596Z,101237.44
2022-08-22T19:39:09.144Z,101236.59
2022-08-22T19:44:19.545Z,101238.16
2022-08-22T19:49:28.416Z,101229.53
2022-08-22T19:54:30.286Z,101219.47
2022-08-22T19:59:46.762Z,101218.09
2022-08-22T20:05:04.771Z,101221.22
2022-08-22T20:10:20.338Z,101212.63
2022-08-22T20:15:23.575Z,101204.94
2022-08-22T20:20:35.560Z,101198.69
2022-08-22T20:25:44.221Z,101201.00
2022-08-22T20:30:46.020Z,101196.47
2022-08-22T20:35:51.428Z,101195.34
2022-08-22T20:41:36.946Z,101193.81
2022-08-22T20:46:56.285Z,101193.94
2022-08-22T20:51:59.891Z,101196.78
2022-08-22T20:57:03.457Z,101184.97
2022-08-22T21:02:10.112Z,101186.13
2022-08-22T21:07:11.682Z,101188.16
2022-08-22T21:12:13.254Z,101183.44
2022-08-22T21:17:27.301Z,101184.81
2022-08-22T21:22:31.675Z,101176.13
2022-08-22T21:27:33.786Z,101195.44
2022-08-22T21:32:46.662Z,101180.38
2022-08-22T21:37:48.170Z,101177.88
2022-08-22T21:43:11.433Z,101186.47
2022-08-22T21:48:58.669Z,101183.00
2022-08-22T21:54:24.776Z,101190.66
2022-08-22T21:59:50.789Z,101189.06
2022-08-22T22:04:53.950Z,101180.50
2022-08-22T22:09:55.590Z,101177.94
2022-08-22T22:14:57.118Z,101179.19
2022-08-22T22:19:58.638Z,101173.19
2022-08-22T22:25:00.161Z,101164.41
2022-08-22T22:30:01.810Z,101162.75
2022-08-22T22:35:03.317Z,101166.75
2022-08-22T22:40:07.218Z,101167.28
2022-08-22T22:45:10.725Z,101163.22
2022-08-22T22:50:12.247Z,101160.50
2022-08-22T22:55:24.453Z,101147.06
2022-08-22T23:00:34.021Z,101148.66
2022-08-22T23:05:35.602Z,101153.09
2022-08-22T23:10:37.182Z,101140.84
2022-08-22T23:15:38.740Z,101141.59
2022-08-22T23:20:40.263Z,101139.31
2022-08-22T23:25:41.787Z,101139.88
2022-08-22T23:30:43.351Z,101135.03
2022-08-22T23:35:44.995Z,101136.28
2022-08-22T23:40:46.503Z,101136.16
2022-08-22T23:45:48.013Z,101128.81
2022-08-22T23:50:49.532Z,101132.34
2022-08-22T23:55:51.088Z,101138.34
